createdAt,value
2023-02-02T00:00:32.353Z,10.50
2023-02-02T00:03:05.168Z,9.60
2023-02-02T00:05:38.173Z,10.00
2023-02-02T00:08:11.168Z,9.63
2023-02-02T00:10:46.671Z,9.30
2023-02-02T00:13:19.480Z,8.80
2023-02-02T00:15:52.301Z,9.17
2023-02-02T00:18:25.017Z,9.80
2023-02-02T00:20:57.910Z,9.60
2023-02-02T00:23:30.802Z,10.10
2023-02-02T00:26:03.572Z,10.50
2023-02-02T00:28:37.882Z,10.53
2023-02-02T00:31:10.774Z,10.20
2023-02-02T00:33:43.956Z,10.70
2023-02-02T00:36:16.990Z,10.60
2023-02-02T00:38:50.991Z,10.20
2023-02-02T00:41:23.968Z,10.20
2023-02-02T00:44:13.812Z,9.60
2023-02-02T00:46:47.146Z,9.20
2023-02-02T00:49:20.117Z,9.20
2023-02-02T00:51:53.013Z,8.70
2023-02-02T00:54:25.966Z,9.47
2023-02-02T00:56:58.954Z,9.20
2023-02-02T00:59:32.093Z,9.47
2023-02-02T01:02:05.051Z,9.17
2023-02-02T01:04:37.756Z,9.20
2023-02-02T01:07:10.702Z,9.90
2023-02-02T01:09:43.531Z,8.30
2023-02-02T01:12:16.228Z,8.40
2023-02-02T01:14:49.132Z,9.00
2023-02-02T01:17:21.923Z,9.60
2023-02-02T01:19:54.885Z,9.70
2023-02-02T01:22:27.566Z,10.00
2023-02-02T01:25:00.469Z,9.47
2023-02-02T01:27:33.312Z,9.13
2023-02-02T01:30:06.238Z,9.40
2023-02-02T01:32:39.602Z,9.17
2023-02-02T01:35:13.067Z,8.87
2023-02-02T01:37:45.978Z,9.30
2023-02-02T01:40:19.184Z,8.80
2023-02-02T01:42:52.235Z,9.00
2023-02-02T01:45:30.004Z,10.03
2023-02-02T01:48:03.815Z,9.90
2023-02-02T01:50:38.181Z,10.50
2023-02-02T01:53:12.338Z,10.77
2023-02-02T01:55:45.967Z,10.40
2023-02-02T01:58:29.521Z,12.60
2023-02-02T02:01:02.477Z,10.70
2023-02-02T02:03:37.617Z,11.20
2023-02-02T02:06:12.413Z,11.40
2023-02-02T02:08:54.217Z,11.40
2023-02-02T02:11:28.051Z,11.20
2023-02-02T02:14:20.924Z,11.40
2023-02-02T02:17:16.598Z,11.30
2023-02-02T02:20:34.383Z,10.90
2023-02-02T02:23:42.493Z,11.30
2023-02-02T02:26:39.561Z,12.00
2023-02-02T02:29:14.228Z,11.70
2023-02-02T02:32:07.911Z,11.70
2023-02-02T02:34:46.460Z,11.80
2023-02-02T02:37:24.164Z,11.47
2023-02-02T02:40:26.150Z,11.93
2023-02-02T02:43:02.202Z,12.23
2023-02-02T02:45:35.654Z,11.60
2023-02-02T02:48:08.724Z,11.70
2023-02-02T02:50:45.728Z,10.83
2023-02-02T02:53:23.556Z,10.70
2023-02-02T02:56:06.955Z,10.83
2023-02-02T02:58:47.756Z,10.60
2023-02-02T03:01:22.764Z,10.70
2023-02-02T03:03:57.924Z,11.10
2023-02-02T03:06:47.452Z,10.40
2023-02-02T03:09:32.010Z,10.53
2023-02-02T03:12:05.180Z,10.00
2023-02-02T03:14:44.638Z,9.70
2023-02-02T03:17:17.735Z,8.40
2023-02-02T03:19:50.924Z,7.10
2023-02-02T03:22:24.790Z,6.60
2023-02-02T03:24:58.810Z,5.90
2023-02-02T03:27:32.690Z,5.53
2023-02-02T03:30:05.728Z,5.90
2023-02-02T03:32:42.971Z,6.00
2023-02-02T03:35:15.936Z,6.20
2023-02-02T03:37:49.634Z,6.60
2023-02-02T03:40:25.176Z,6.97
2023-02-02T03:42:58.177Z,6.40
2023-02-02T03:45:31.927Z,6.50
2023-02-02T03:48:06.084Z,6.80
2023-02-02T03:50:40.267Z,6.80
2023-02-02T03:53:12.972Z,6.80
2023-02-02T03:55:45.802Z,7.00
2023-02-02T03:58:19.340Z,6.80
2023-02-02T04:00:52.325Z,7.20
2023-02-02T04:03:25.050Z,7.30
2023-02-02T04:05:58.030Z,7.50
2023-02-02T04:08:30.681Z,7.90
2023-02-02T04:11:03.643Z,7.63
2023-02-02T04:13:36.803Z,8.00
2023-02-02T04:16:09.866Z,8.33
2023-02-02T04:18:42.696Z,8.57
2023-02-02T04:21:15.599Z,8.60
2023-02-02T04:23:48.344Z,8.50
2023-02-02T04:26:21.070Z,8.60
2023-02-02T04:28:53.729Z,8.20
2023-02-02T04:31:26.598Z,7.90
2023-02-02T04:33:59.644Z,7.90
2023-02-02T04:36:33.311Z,7.40
2023-02-02T04:39:06.041Z,7.40
2023-02-02T04:41:39.005Z,7.30
2023-02-02T04:44:14.053Z,7.50
2023-02-02T04:46:47.202Z,7.60
2023-02-02T04:49:20.183Z,7.50
2023-02-02T04:51:53.009Z,6.90
2023-02-02T04:54:29.829Z,6.80
2023-02-02T04:57:02.689Z,7.10
2023-02-02T04:59:35.701Z,7.20
2023-02-02T05:02:08.527Z,7.50
2023-02-02T05:04:41.639Z,7.80
2023-02-02T05:07:14.666Z,7.80
2023-02-02T05:09:47.522Z,7.50
2023-02-02T05:12:20.626Z,7.30
2023-02-02T05:14:53.344Z,7.10
2023-02-02T05:17:26.221Z,7.30
2023-02-02T05:19:59.044Z,7.37
2023-02-02T05:22:32.066Z,7.00
2023-02-02T05:25:05.316Z,7.30
2023-02-02T05:27:38.451Z,7.13
2023-02-02T05:30:12.635Z,6.70
2023-02-02T05:32:45.944Z,7.00
2023-02-02T05:35:19.314Z,7.23
2023-02-02T05:37:52.879Z,7.40
2023-02-02T05:40:25.781Z,6.90
2023-02-02T05:42:58.795Z,7.20
2023-02-02T05:45:31.603Z,6.70
2023-02-02T05:48:04.365Z,7.00
2023-02-02T05:50:37.114Z,7.40
2023-02-02T05:53:09.983Z,7.00
2023-02-02T05:55:42.690Z,7.00
2023-02-02T05:58:15.461Z,6.80
2023-02-02T06:00:48.435Z,6.60
2023-02-02T06:03:21.356Z,6.70
2023-02-02T06:05:55.465Z,6.70
2023-02-02T06:08:28.336Z,6.70
2023-02-02T06:11:01.056Z,7.20
2023-02-02T06:13:34.292Z,7.17
2023-02-02T06:16:07.003Z,6.70
2023-02-02T06:18:39.931Z,6.50
2023-02-02T06:21:13.314Z,6.70
2023-02-02T06:23:47.551Z,6.20
2023-02-02T06:26:21.016Z,6.30
2023-02-02T06:28:55.403Z,6.53
2023-02-02T06:31:28.296Z,6.10
2023-02-02T06:34:01.838Z,6.40
2023-02-02T06:36:35.148Z,6.40
2023-02-02T06:39:09.872Z,6.70
2023-02-02T06:41:42.902Z,6.30
2023-02-02T06:44:17.191Z,6.50
2023-02-02T06:46:50.245Z,6.70
2023-02-02T06:49:23.158Z,6.60
2023-02-02T06:51:55.817Z,6.60
2023-02-02T06:54:28.751Z,7.00
2023-02-02T06:57:01.630Z,7.10
2023-02-02T06:59:34.532Z,7.03
2023-02-02T07:02:11.852Z,7.00
2023-02-02T07:04:45.456Z,7.00
2023-02-02T07:07:18.388Z,6.80
2023-02-02T07:09:58.212Z,6.80
2023-02-02T07:12:30.557Z,7.10
2023-02-02T07:15:03.622Z,7.10
2023-02-02T07:17:36.783Z,6.80
2023-02-02T07:20:10.302Z,6.80
2023-02-02T07:22:46.291Z,6.30
2023-02-02T07:25:19.455Z,6.90
2023-02-02T07:27:53.237Z,6.80
2023-02-02T07:30:27.331Z,6.60
2023-02-02T07:33:02.952Z,6.90
2023-02-02T07:35:36.002Z,6.70
2023-02-02T07:38:08.898Z,6.90
2023-02-02T07:40:42.173Z,6.60
2023-02-02T07:43:15.076Z,6.60
2023-02-02T07:45:48.140Z,6.33
2023-02-02T07:48:21.365Z,6.40
2023-02-02T07:50:54.145Z,6.30
2023-02-02T07:53:27.050Z,6.40
2023-02-02T07:56:10.374Z,6.23
2023-02-02T07:58:43.544Z,6.80
2023-02-02T08:01:17.938Z,6.57
2023-02-02T08:03:51.040Z,6.30
2023-02-02T08:06:30.104Z,7.33
2023-02-02T08:09:04.242Z,6.30
2023-02-02T08:11:37.277Z,6.30
2023-02-02T08:14:10.974Z,6.03
2023-02-02T08:16:43.835Z,6.40
2023-02-02T08:19:16.905Z,6.10
2023-02-02T08:21:49.856Z,6.20
2023-02-02T08:24:22.710Z,6.10
2023-02-02T08:26:55.532Z,6.10
2023-02-02T08:29:28.540Z,6.30
2023-02-02T08:32:02.063Z,5.90
2023-02-02T08:34:36.119Z,6.07
2023-02-02T08:37:09.517Z,6.20
2023-02-02T08:39:42.475Z,6.07
2023-02-02T08:42:15.668Z,6.30
2023-02-02T08:46:01.898Z,6.40
2023-02-02T08:47:26.803Z,6.40
2023-02-02T08:50:00.524Z,6.40
2023-02-02T08:52:38.105Z,6.50
2023-02-02T08:55:11.302Z,6.50
2023-02-02T08:57:44.246Z,6.30
2023-02-02T09:00:20.691Z,6.30
2023-02-02T09:02:54.738Z,6.30
2023-02-02T09:05:27.939Z,6.40
2023-02-02T09:08:01.222Z,6.10
2023-02-02T09:10:38.218Z,6.00
2023-02-02T09:13:10.895Z,6.03
2023-02-02T09:15:43.888Z,5.80
2023-02-02T09:18:16.716Z,6.00
2023-02-02T09:20:49.636Z,5.63
2023-02-02T09:23:22.929Z,5.60
2023-02-02T09:25:55.652Z,5.27
2023-02-02T09:28:28.265Z,5.80
2023-02-02T09:31:02.306Z,5.60
2023-02-02T09:33:35.323Z,5.23
2023-02-02T09:36:18.749Z,5.30
2023-02-02T09:38:54.354Z,5.30
2023-02-02T09:41:44.589Z,5.27
2023-02-02T09:44:43.834Z,5.40
2023-02-02T09:47:21.589Z,5.50
2023-02-02T09:50:07.982Z,5.50
2023-02-02T09:52:45.839Z,5.33
2023-02-02T09:55:32.226Z,5.60
2023-02-02T09:58:06.733Z,5.70
2023-02-02T10:00:44.301Z,5.90
2023-02-02T10:03:38.730Z,5.73
2023-02-02T10:06:22.509Z,5.30
2023-02-02T10:09:12.311Z,5.40
2023-02-02T10:11:52.885Z,5.77
2023-02-02T10:14:27.926Z,5.90
2023-02-02T10:17:03.200Z,5.90
2023-02-02T10:19:37.200Z,5.70
2023-02-02T10:22:16.017Z,5.90
2023-02-02T10:24:49.170Z,5.67
2023-02-02T10:27:23.748Z,6.07
2023-02-02T10:30:04.460Z,5.80
2023-02-02T10:32:43.054Z,6.23
2023-02-02T10:35:37.097Z,6.03
2023-02-02T10:38:20.812Z,5.70
2023-02-02T10:41:17.467Z,5.80
2023-02-02T10:44:14.365Z,6.10
2023-02-02T10:46:53.202Z,5.90
2023-02-02T10:49:27.935Z,6.10
2023-02-02T10:52:02.774Z,6.07
2023-02-02T10:54:54.907Z,6.17
2023-02-02T10:57:16.044Z,6.60
2023-02-02T11:00:08.966Z,6.30
2023-02-02T11:02:41.987Z,6.83
2023-02-02T11:05:36.416Z,7.80
2023-02-02T11:08:20.250Z,6.30
2023-02-02T11:10:54.788Z,6.30
2023-02-02T11:13:35.679Z,6.43
2023-02-02T11:16:22.681Z,6.63
2023-02-02T11:18:55.785Z,6.53
2023-02-02T11:21:33.576Z,7.20
2023-02-02T11:24:11.800Z,7.20
2023-02-02T11:26:59.944Z,7.43
2023-02-02T11:29:34.745Z,7.30
2023-02-02T11:32:30.237Z,6.90
2023-02-02T11:35:19.955Z,7.37
2023-02-02T11:38:09.133Z,7.20
2023-02-02T11:40:44.004Z,7.10
2023-02-02T11:43:35.270Z,7.00
2023-02-02T11:46:10.402Z,7.40
2023-02-02T11:48:48.519Z,7.80
2023-02-02T11:51:25.921Z,8.00
2023-02-02T11:54:18.939Z,8.00
2023-02-02T11:56:57.025Z,7.97
2023-02-02T11:59:35.502Z,7.40
2023-02-02T12:02:26.905Z,7.60
2023-02-02T12:05:07.284Z,7.60
2023-02-02T12:07:40.299Z,7.30
2023-02-02T12:10:34.013Z,7.90
2023-02-02T12:13:15.629Z,7.80
2023-02-02T12:16:02.277Z,7.87
2023-02-02T12:18:58.216Z,7.70
2023-02-02T12:22:03.343Z,7.70
2023-02-02T12:24:41.765Z,7.80
2023-02-02T12:27:35.206Z,7.70
2023-02-02T12:30:18.771Z,7.90
2023-02-02T12:33:15.123Z,8.00
2023-02-02T12:36:04.808Z,8.30
2023-02-02T12:38:48.754Z,7.87
2023-02-02T12:41:35.481Z,8.30
2023-02-02T12:44:16.471Z,8.57
2023-02-02T12:47:11.980Z,8.10
2023-02-02T12:50:11.389Z,7.87
2023-02-02T12:53:16.411Z,8.10
2023-02-02T12:56:00.356Z,8.00
2023-02-02T12:58:44.514Z,8.20
2023-02-02T13:01:41.963Z,7.70
2023-02-02T13:04:28.732Z,7.70
2023-02-02T13:07:12.328Z,7.97
2023-02-02T13:10:10.068Z,8.00
2023-02-02T13:12:47.801Z,7.83
2023-02-02T13:15:23.949Z,7.60
2023-02-02T13:18:01.105Z,7.77
2023-02-02T13:20:41.470Z,7.60
2023-02-02T13:23:20.070Z,7.60
2023-02-02T13:25:55.281Z,7.60
2023-02-02T13:28:44.972Z,7.50
2023-02-02T13:31:19.870Z,7.40
2023-02-02T13:33:54.637Z,7.57
2023-02-02T13:36:30.567Z,7.20
2023-02-02T13:39:05.211Z,7.20
2023-02-02T13:41:39.492Z,7.00
2023-02-02T13:44:14.718Z,7.40
2023-02-02T13:46:54.778Z,7.30
2023-02-02T13:49:35.685Z,7.90
2023-02-02T13:52:34.295Z,6.90
2023-02-02T13:55:24.013Z,6.80
2023-02-02T13:58:30.463Z,6.90
2023-02-02T14:01:05.239Z,7.40
2023-02-02T14:03:45.364Z,7.20
2023-02-02T14:06:20.423Z,6.80
2023-02-02T14:09:04.284Z,6.97
2023-02-02T14:11:44.354Z,6.70
2023-02-02T14:14:41.051Z,6.67
2023-02-02T14:17:21.811Z,6.63
2023-02-02T14:19:59.425Z,6.30
2023-02-02T14:22:53.381Z,6.50
2023-02-02T14:25:40.577Z,6.70
2023-02-02T14:28:17.068Z,6.80
2023-02-02T14:30:51.851Z,6.67
2023-02-02T14:33:29.774Z,6.57
2023-02-02T14:36:04.448Z,6.60
2023-02-02T14:38:59.637Z,6.83
2023-02-02T14:42:03.562Z,7.00
2023-02-02T14:44:37.872Z,6.90
2023-02-02T14:47:12.897Z,6.93
2023-02-02T14:49:45.724Z,7.30
2023-02-02T14:52:20.368Z,7.20
2023-02-02T14:54:57.352Z,7.07
2023-02-02T14:57:36.491Z,7.10
2023-02-02T15:00:14.588Z,6.90
2023-02-02T15:02:47.579Z,7.00
2023-02-02T15:05:38.505Z,6.80
2023-02-02T15:08:28.116Z,6.60
2023-02-02T15:11:03.324Z,7.30
2023-02-02T15:13:40.949Z,7.17
2023-02-02T15:16:15.824Z,7.20
2023-02-02T15:18:53.245Z,7.00
2023-02-02T15:21:27.438Z,7.10
2023-02-02T15:24:01.107Z,6.70
2023-02-02T15:26:35.916Z,6.90
2023-02-02T15:29:13.434Z,7.00
2023-02-02T15:31:48.014Z,6.90
2023-02-02T15:34:23.959Z,6.90
2023-02-02T15:37:01.889Z,6.40
2023-02-02T15:39:43.179Z,6.13
2023-02-02T15:42:43.785Z,6.10
2023-02-02T15:45:44.192Z,6.30
2023-02-02T15:48:34.102Z,6.70
2023-02-02T15:51:08.789Z,6.43
2023-02-02T15:53:46.613Z,5.93
2023-02-02T15:56:33.756Z,6.60
2023-02-02T15:59:07.009Z,6.50
2023-02-02T16:01:41.852Z,6.57
2023-02-02T16:04:28.515Z,6.40
2023-02-02T16:07:01.880Z,6.30
2023-02-02T16:09:36.672Z,5.70
2023-02-02T16:12:15.108Z,5.30
2023-02-02T16:14:52.907Z,4.83
2023-02-02T16:17:37.262Z,4.90
2023-02-02T16:20:15.439Z,4.80
2023-02-02T16:22:49.040Z,5.30
2023-02-02T16:25:23.966Z,5.20
2023-02-02T16:27:57.250Z,4.90
2023-02-02T16:30:35.051Z,5.00
2023-02-02T16:33:34.357Z,4.87
2023-02-02T16:36:12.791Z,5.00
2023-02-02T16:38:43.064Z,5.20
2023-02-02T16:41:29.775Z,5.23
2023-02-02T16:44:23.377Z,5.10
2023-02-02T16:46:58.284Z,5.20
2023-02-02T16:49:31.974Z,5.40
2023-02-02T16:52:21.864Z,5.40
2023-02-02T16:54:59.540Z,5.00
2023-02-02T16:57:34.633Z,4.60
2023-02-02T17:00:09.545Z,3.60
2023-02-02T17:02:44.109Z,2.93
2023-02-02T17:05:31.188Z,2.83
2023-02-02T17:08:06.593Z,2.70
2023-02-02T17:10:44.528Z,2.80
2023-02-02T17:13:36.721Z,2.70
2023-02-02T17:16:10.740Z,2.80
2023-02-02T17:18:43.754Z,3.00
2023-02-02T17:21:24.685Z,2.90
2023-02-02T17:23:58.255Z,2.60
2023-02-02T17:26:34.231Z,2.60
2023-02-02T17:29:07.783Z,2.60
2023-02-02T17:31:41.244Z,2.40
2023-02-02T17:34:18.204Z,2.40
2023-02-02T17:36:51.106Z,2.50
2023-02-02T17:39:23.912Z,2.50
2023-02-02T17:41:58.334Z,2.50
2023-02-02T17:44:30.991Z,2.60
2023-02-02T17:47:04.007Z,2.60
2023-02-02T17:49:37.044Z,2.40
2023-02-02T17:52:09.897Z,2.67
2023-02-02T17:54:42.846Z,2.70
2023-02-02T17:57:15.874Z,2.60
2023-02-02T17:59:48.914Z,2.73
2023-02-02T18:02:22.058Z,3.20
2023-02-02T18:04:54.879Z,2.50
2023-02-02T18:07:27.798Z,2.47
2023-02-02T18:10:00.627Z,2.60
2023-02-02T18:12:34.675Z,2.37
2023-02-02T18:15:08.803Z,2.50
2023-02-02T18:17:42.048Z,2.50
2023-02-02T18:20:17.444Z,2.40
2023-02-02T18:22:50.701Z,2.50
2023-02-02T18:25:24.155Z,2.60
2023-02-02T18:27:57.728Z,2.50
2023-02-02T18:30:30.405Z,2.50
2023-02-02T18:33:03.426Z,2.37
2023-02-02T18:35:36.472Z,2.40
2023-02-02T18:38:09.350Z,2.50
2023-02-02T18:40:42.118Z,2.50
2023-02-02T18:43:15.062Z,2.50
2023-02-02T18:45:47.944Z,2.50
2023-02-02T18:48:21.638Z,2.50
2023-02-02T18:50:54.709Z,2.40
2023-02-02T18:53:27.725Z,2.50
2023-02-02T18:56:00.852Z,2.40
2023-02-02T18:58:34.057Z,2.20
2023-02-02T19:01:15.131Z,2.10
2023-02-02T19:03:53.092Z,2.20
2023-02-02T19:06:44.442Z,2.33
2023-02-02T19:09:18.520Z,2.40
2023-02-02T19:11:53.061Z,2.40
2023-02-02T19:14:33.417Z,2.50
2023-02-02T19:17:14.122Z,2.60
2023-02-02T19:19:47.001Z,2.73
2023-02-02T19:22:28.603Z,2.80
2023-02-02T19:25:02.325Z,2.77
2023-02-02T19:27:36.642Z,2.60
2023-02-02T19:30:11.335Z,2.70
2023-02-02T19:32:44.310Z,2.60
2023-02-02T19:35:22.248Z,2.60
2023-02-02T19:37:57.202Z,2.60
2023-02-02T19:40:30.334Z,2.70
2023-02-02T19:43:18.616Z,2.50
2023-02-02T19:45:51.563Z,2.60
2023-02-02T19:48:33.292Z,2.40
2023-02-02T19:51:07.999Z,2.40
2023-02-02T19:53:41.996Z,2.47
2023-02-02T19:56:29.005Z,2.50
2023-02-02T19:59:02.530Z,2.60
2023-02-02T20:01:37.619Z,2.70
2023-02-02T20:04:12.760Z,2.70
2023-02-02T20:06:58.092Z,2.73
2023-02-02T20:09:25.762Z,2.70
2023-02-02T20:12:01.132Z,2.70
2023-02-02T20:14:39.591Z,2.60
2023-02-02T20:17:17.334Z,2.60
2023-02-02T20:19:51.083Z,2.60
2023-02-02T20:22:32.112Z,2.70
2023-02-02T20:25:07.189Z,2.60
2023-02-02T20:27:41.313Z,2.50
2023-02-02T20:30:22.275Z,2.73
2023-02-02T20:32:58.293Z,2.70
2023-02-02T20:35:38.938Z,2.60
2023-02-02T20:38:39.169Z,2.60
2023-02-02T20:41:12.075Z,2.60
2023-02-02T20:43:46.376Z,2.57
2023-02-02T20:46:19.906Z,2.73
2023-02-02T20:48:52.865Z,2.90
2023-02-02T20:51:30.837Z,2.70
2023-02-02T20:54:03.794Z,2.70
2023-02-02T20:56:40.768Z,2.77
2023-02-02T20:59:13.620Z,2.70
2023-02-02T21:01:46.374Z,2.80
2023-02-02T21:04:19.187Z,2.60
2023-02-02T21:06:52.464Z,2.70
2023-02-02T21:09:25.281Z,2.70
2023-02-02T21:11:58.469Z,2.70
2023-02-02T21:14:31.253Z,2.70
2023-02-02T21:17:14.416Z,2.90
2023-02-02T21:19:38.244Z,2.90
2023-02-02T21:22:11.187Z,2.60
2023-02-02T21:24:44.463Z,2.70
2023-02-02T21:27:17.315Z,2.80
2023-02-02T21:29:50.195Z,2.80
2023-02-02T21:32:23.955Z,2.80
2023-02-02T21:34:56.910Z,2.80
2023-02-02T21:37:31.455Z,2.70
2023-02-02T21:40:04.928Z,2.70
2023-02-02T21:42:38.009Z,2.60
2023-02-02T21:45:28.011Z,2.70
2023-02-02T21:48:04.488Z,2.60
2023-02-02T21:50:39.620Z,2.80
2023-02-02T21:53:17.685Z,2.80
2023-02-02T21:55:55.315Z,2.90
2023-02-02T21:58:40.359Z,3.10
2023-02-02T22:01:27.033Z,3.10
2023-02-02T22:04:00.015Z,3.00
2023-02-02T22:06:40.025Z,3.00
2023-02-02T22:09:20.739Z,3.30
2023-02-02T22:12:04.583Z,3.10
2023-02-02T22:14:45.081Z,3.23
2023-02-02T22:17:29.298Z,3.20
2023-02-02T22:20:22.844Z,3.20
2023-02-02T22:23:00.579Z,3.23
2023-02-02T22:25:40.961Z,3.30
2023-02-02T22:28:27.991Z,3.20
2023-02-02T22:31:01.689Z,3.30
2023-02-02T22:33:34.447Z,3.27
2023-02-02T22:36:07.358Z,3.50
2023-02-02T22:38:40.333Z,3.60
2023-02-02T22:41:13.327Z,3.33
2023-02-02T22:43:46.312Z,3.47
2023-02-02T22:46:19.332Z,3.40
2023-02-02T22:48:52.154Z,3.33
2023-02-02T22:51:25.352Z,3.50
2023-02-02T22:53:58.956Z,3.40
2023-02-02T22:56:31.721Z,3.40
2023-02-02T22:59:05.345Z,3.20
2023-02-02T23:01:38.208Z,3.20
2023-02-02T23:04:11.276Z,3.30
2023-02-02T23:06:44.254Z,3.40
2023-02-02T23:09:17.515Z,3.20
2023-02-02T23:11:50.385Z,3.20
2023-02-02T23:14:23.101Z,3.10
2023-02-02T23:16:56.154Z,3.00
2023-02-02T23:19:29.105Z,3.00
2023-02-02T23:22:02.115Z,3.30
2023-02-02T23:24:34.796Z,3.10
2023-02-02T23:27:07.863Z,2.80
2023-02-02T23:29:40.695Z,2.83
2023-02-02T23:32:13.502Z,2.67
2023-02-02T23:34:46.776Z,2.50
2023-02-02T23:37:19.720Z,2.50
2023-02-02T23:43:00.128Z,2.40
2023-02-02T23:45:33.223Z,2.40
2023-02-02T23:48:06.119Z,2.40
2023-02-02T23:50:43.457Z,2.40
2023-02-02T23:53:17.524Z,2.30
2023-02-02T23:55:51.092Z,2.20
2023-02-02T23:58:24.186Z,2.10
